createdAt,value
2018-03-25T00:01:42.107Z,31.70
2018-03-25T00:04:13.328Z,30.83
2018-03-25T00:06:44.582Z,31.70
2018-03-25T00:09:15.814Z,29.53
2018-03-25T00:11:47.125Z,31.50
2018-03-25T00:14:18.401Z,30.53
2018-03-25T00:16:49.751Z,31.67
2018-03-25T00:19:21.756Z,31.00
2018-03-25T00:21:53.020Z,31.33
2018-03-25T00:24:24.992Z,32.30
2018-03-25T00:26:56.209Z,31.97
2018-03-25T00:29:27.520Z,31.67
2018-03-25T00:31:58.817Z,31.23
2018-03-25T00:34:30.940Z,32.27
2018-03-25T00:37:02.242Z,31.70
2018-03-25T00:39:33.423Z,32.33
2018-03-25T00:42:04.862Z,32.13
2018-03-25T00:44:36.076Z,32.40
2018-03-25T00:47:07.300Z,31.60
2018-03-25T00:49:38.576Z,33.23
2018-03-25T00:52:09.822Z,32.03
2018-03-25T00:54:41.298Z,34.03
2018-03-25T00:57:12.560Z,31.37
2018-03-25T00:59:44.882Z,32.17
2018-03-25T01:02:16.069Z,33.00
2018-03-25T01:04:47.352Z,32.07
2018-03-25T01:07:18.562Z,32.20
2018-03-25T01:09:50.533Z,31.90
2018-03-25T01:12:22.524Z,33.70
2018-03-25T01:14:53.832Z,34.03
2018-03-25T01:17:25.029Z,33.70
2018-03-25T01:19:56.254Z,32.83
2018-03-25T01:22:27.531Z,32.93
2018-03-25T01:24:58.724Z,36.13
2018-03-25T01:27:29.966Z,34.03
2018-03-25T01:30:01.176Z,34.90
2018-03-25T01:32:32.702Z,33.73
2018-03-25T01:35:04.035Z,33.23
2018-03-25T01:37:35.244Z,31.80
2018-03-25T01:40:06.488Z,33.83
2018-03-25T01:42:38.469Z,33.17
2018-03-25T01:45:09.677Z,32.60
2018-03-25T01:47:40.894Z,33.77
2018-03-25T01:50:12.108Z,32.73
2018-03-25T01:52:43.310Z,31.53
2018-03-25T01:55:14.799Z,33.50
2018-03-25T01:57:46.726Z,33.53
2018-03-25T02:00:17.986Z,31.87
2018-03-25T02:02:49.935Z,34.53
2018-03-25T02:05:21.332Z,33.40
2018-03-25T02:07:52.548Z,33.63
2018-03-25T02:10:24.735Z,33.37
2018-03-25T02:12:55.963Z,33.27
2018-03-25T02:15:27.585Z,33.13
2018-03-25T02:17:58.974Z,34.30
2018-03-25T02:20:30.187Z,33.13
2018-03-25T02:23:01.417Z,35.30
2018-03-25T02:25:32.705Z,32.30
2018-03-25T02:28:03.972Z,33.87
2018-03-25T02:30:35.251Z,35.47
2018-03-25T02:33:06.564Z,32.87
2018-03-25T02:35:37.818Z,34.13
2018-03-25T02:38:09.166Z,32.27
2018-03-25T02:40:40.399Z,33.77
2018-03-25T02:43:11.645Z,34.03
2018-03-25T02:45:42.901Z,32.77
2018-03-25T02:48:14.096Z,33.83
2018-03-25T02:50:46.156Z,33.77
2018-03-25T02:53:17.352Z,33.60
2018-03-25T02:55:48.660Z,36.10
2018-03-25T02:58:19.927Z,33.37
2018-03-25T03:00:51.148Z,34.00
2018-03-25T03:03:22.417Z,34.63
2018-03-25T03:05:53.641Z,33.20
2018-03-25T03:08:24.873Z,33.63
2018-03-25T03:10:56.841Z,35.60
2018-03-25T03:13:28.798Z,34.57
2018-03-25T03:16:00.844Z,34.97
2018-03-25T03:18:32.068Z,36.50
2018-03-25T03:21:03.393Z,32.80
2018-03-25T03:23:34.691Z,34.17
2018-03-25T03:26:06.702Z,34.67
2018-03-25T03:28:37.944Z,34.87
2018-03-25T03:31:09.169Z,35.13
2018-03-25T03:33:40.455Z,34.50
2018-03-25T03:36:11.861Z,36.37
2018-03-25T03:38:43.153Z,36.80
2018-03-25T03:41:14.403Z,34.03
2018-03-25T03:43:45.640Z,33.00
2018-03-25T03:46:17.644Z,35.90
2018-03-25T03:48:49.606Z,35.40
2018-03-25T03:51:20.835Z,35.37
2018-03-25T03:53:52.771Z,35.30
2018-03-25T03:56:24.837Z,36.20
2018-03-25T03:58:56.070Z,34.77
2018-03-25T04:01:27.293Z,37.37
2018-03-25T04:03:58.739Z,36.07
2018-03-25T04:06:29.940Z,34.60
2018-03-25T04:09:02.003Z,34.73
2018-03-25T04:11:33.240Z,35.53
2018-03-25T04:14:04.516Z,34.33
2018-03-25T04:16:35.784Z,35.67
2018-03-25T04:19:07.009Z,34.37
2018-03-25T04:21:38.232Z,35.40
2018-03-25T04:24:09.466Z,36.13
2018-03-25T04:26:41.702Z,35.37
2018-03-25T04:29:12.911Z,36.07
2018-03-25T04:31:44.151Z,33.40
2018-03-25T04:34:15.846Z,35.23
2018-03-25T04:36:47.389Z,33.10
2018-03-25T04:39:18.643Z,35.47
2018-03-25T04:41:49.894Z,33.70
2018-03-25T04:44:21.083Z,34.43
2018-03-25T04:46:52.668Z,32.27
2018-03-25T04:49:23.927Z,33.80
2018-03-25T04:51:55.143Z,33.90
2018-03-25T04:54:26.353Z,34.10
2018-03-25T04:56:58.390Z,32.63
2018-03-25T04:59:29.680Z,33.00
2018-03-25T05:02:00.916Z,31.93
2018-03-25T05:04:32.157Z,33.13
2018-03-25T05:07:03.420Z,32.53
2018-03-25T05:09:34.723Z,33.57
2018-03-25T05:12:05.939Z,33.07
2018-03-25T05:14:37.335Z,33.57
2018-03-25T05:17:08.631Z,31.33
2018-03-25T05:19:39.843Z,31.83
2018-03-25T05:22:11.096Z,30.33
2018-03-25T05:24:42.413Z,31.13
2018-03-25T05:27:14.345Z,32.10
2018-03-25T05:29:45.568Z,31.27
2018-03-25T05:32:16.884Z,31.70
2018-03-25T05:34:48.396Z,33.57
2018-03-25T05:37:19.776Z,32.60
2018-03-25T05:39:51.812Z,31.80
2018-03-25T05:42:23.015Z,31.37
2018-03-25T05:44:54.342Z,31.27
2018-03-25T05:47:25.598Z,31.73
2018-03-25T05:49:56.847Z,30.80
2018-03-25T05:52:28.112Z,30.03
2018-03-25T05:54:59.378Z,31.30
2018-03-25T05:57:31.463Z,30.87
2018-03-25T06:00:03.489Z,30.63
2018-03-25T06:02:34.763Z,30.57
2018-03-25T06:05:05.956Z,30.67
2018-03-25T06:07:37.252Z,30.40
2018-03-25T06:10:09.189Z,30.53
2018-03-25T06:12:40.497Z,31.23
2018-03-25T06:15:11.761Z,29.00
2018-03-25T06:17:44.465Z,30.33
2018-03-25T06:20:16.460Z,30.23
2018-03-25T06:22:48.427Z,31.03
2018-03-25T06:25:19.712Z,30.77
2018-03-25T06:27:50.970Z,30.03
2018-03-25T06:30:22.198Z,31.10
2018-03-25T06:33:00.578Z,30.80
2018-03-25T06:35:31.766Z,31.10
2018-03-25T06:38:03.859Z,31.13
2018-03-25T06:40:35.098Z,30.77
2018-03-25T06:43:07.128Z,30.27
2018-03-25T06:45:38.359Z,29.90
2018-03-25T06:48:09.592Z,32.17
2018-03-25T06:50:40.974Z,30.53
2018-03-25T06:53:13.018Z,30.67
2018-03-25T06:55:44.247Z,31.37
2018-03-25T06:58:15.541Z,30.57
2018-03-25T07:00:47.519Z,29.87
2018-03-25T07:03:19.948Z,31.67
2018-03-25T07:05:51.607Z,31.27
2018-03-25T07:08:23.144Z,31.50
2018-03-25T07:10:54.327Z,30.13
2018-03-25T07:13:25.659Z,31.67
2018-03-25T07:15:56.974Z,30.47
2018-03-25T07:18:28.212Z,28.63
2018-03-25T07:20:59.443Z,30.13
2018-03-25T07:23:30.692Z,28.33
2018-03-25T07:26:01.932Z,28.67
2018-03-25T07:28:33.147Z,28.17
2018-03-25T07:31:04.426Z,26.23
2018-03-25T07:33:35.692Z,26.97
2018-03-25T07:36:07.015Z,27.67
2018-03-25T07:38:38.342Z,27.53
2018-03-25T07:41:09.612Z,26.77
2018-03-25T07:43:40.850Z,27.07
2018-03-25T07:46:12.075Z,27.30
2018-03-25T07:48:43.410Z,26.97
2018-03-25T07:51:14.687Z,26.07
2018-03-25T07:53:46.009Z,26.27
2018-03-25T07:56:17.253Z,26.00
2018-03-25T07:58:50.834Z,27.57
2018-03-25T08:01:22.101Z,28.30
2018-03-25T08:03:54.484Z,27.30
2018-03-25T08:06:25.714Z,27.00
2018-03-25T08:08:57.014Z,27.77
2018-03-25T08:11:28.253Z,28.20
2018-03-25T08:13:59.512Z,27.20
2018-03-25T08:16:30.739Z,28.00
2018-03-25T08:19:02.025Z,26.87
2018-03-25T08:21:33.310Z,27.33
2018-03-25T08:24:04.954Z,28.63
2018-03-25T08:26:36.204Z,27.47
2018-03-25T08:29:07.500Z,26.73
2018-03-25T08:31:38.727Z,28.53
2018-03-25T08:34:10.035Z,27.80
2018-03-25T08:36:41.267Z,27.57
2018-03-25T08:39:13.277Z,28.17
2018-03-25T08:41:44.543Z,28.90
2018-03-25T08:44:15.740Z,28.10
2018-03-25T08:46:47.199Z,28.10
2018-03-25T08:49:18.470Z,27.87
2018-03-25T08:51:49.796Z,28.80
2018-03-25T08:54:21.075Z,28.27
2018-03-25T08:56:53.202Z,28.80
2018-03-25T08:59:24.488Z,28.30
2018-03-25T09:01:55.746Z,27.87
2018-03-25T09:04:27.138Z,30.17
2018-03-25T09:06:58.700Z,28.03
2018-03-25T09:09:29.948Z,29.43
2018-03-25T09:12:01.206Z,29.40
2018-03-25T09:14:32.509Z,28.70
2018-03-25T09:17:03.802Z,30.30
2018-03-25T09:19:35.145Z,29.87
2018-03-25T09:22:06.446Z,30.93
2018-03-25T09:24:38.417Z,29.93
2018-03-25T09:27:09.695Z,29.10
2018-03-25T09:29:40.886Z,29.80
2018-03-25T09:32:12.935Z,29.17
2018-03-25T09:34:44.961Z,27.27
2018-03-25T09:37:16.245Z,27.90
2018-03-25T09:39:48.303Z,29.00
2018-03-25T09:42:20.515Z,29.63
2018-03-25T09:44:51.684Z,30.67
2018-03-25T09:47:23.144Z,30.00
2018-03-25T09:49:54.443Z,28.60
2018-03-25T09:52:25.697Z,28.43
2018-03-25T09:54:56.902Z,30.13
2018-03-25T09:57:28.836Z,31.07
2018-03-25T10:00:00.264Z,30.27
2018-03-25T10:02:37.545Z,31.00
2018-03-25T10:05:08.755Z,29.23
2018-03-25T10:07:39.963Z,31.53
2018-03-25T10:10:11.940Z,31.10
2018-03-25T10:12:44.011Z,31.70
2018-03-25T10:15:15.968Z,30.27
2018-03-25T10:17:48.723Z,29.87
2018-03-25T10:20:20.057Z,33.87
2018-03-25T10:22:51.244Z,30.93
2018-03-25T10:25:23.556Z,32.40
2018-03-25T10:27:54.739Z,31.40
2018-03-25T10:30:26.777Z,31.80
2018-03-25T10:32:58.041Z,31.90
2018-03-25T10:35:29.378Z,31.80
2018-03-25T10:38:01.427Z,32.10
2018-03-25T10:40:32.830Z,33.00
2018-03-25T10:43:04.901Z,32.77
2018-03-25T10:45:36.140Z,31.70
2018-03-25T10:48:07.360Z,32.83
2018-03-25T10:50:38.620Z,32.03
2018-03-25T10:53:13.152Z,30.23
2018-03-25T10:55:44.809Z,31.40
2018-03-25T10:58:16.060Z,33.30
2018-03-25T11:00:47.436Z,31.17
2018-03-25T11:03:18.710Z,31.83
2018-03-25T11:05:50.698Z,32.57
2018-03-25T11:08:21.988Z,33.07
2018-03-25T11:10:53.211Z,32.40
2018-03-25T11:13:24.454Z,30.90
2018-03-25T11:15:55.636Z,33.13
2018-03-25T11:18:27.882Z,30.87
2018-03-25T11:20:59.125Z,32.60
2018-03-25T11:23:30.375Z,32.33
2018-03-25T11:26:01.608Z,31.07
2018-03-25T11:28:32.872Z,33.60
2018-03-25T11:31:04.188Z,31.87
2018-03-25T11:33:35.379Z,33.43
2018-03-25T11:36:06.678Z,31.13
2018-03-25T11:38:37.934Z,32.13
2018-03-25T11:41:09.375Z,32.60
2018-03-25T11:43:40.720Z,31.97
2018-03-25T11:46:11.947Z,30.77
2018-03-25T11:48:44.976Z,30.23
2018-03-25T11:51:16.210Z,30.43
2018-03-25T11:53:47.944Z,30.67
2018-03-25T11:56:19.959Z,33.70
2018-03-25T11:58:53.463Z,31.73
2018-03-25T12:01:25.534Z,30.37
2018-03-25T12:03:56.779Z,30.23
2018-03-25T12:06:28.959Z,30.77
2018-03-25T12:09:00.279Z,30.93
2018-03-25T12:11:31.599Z,30.97
2018-03-25T12:14:02.869Z,31.13
2018-03-25T12:16:34.101Z,31.20
2018-03-25T12:19:05.535Z,30.77
2018-03-25T12:21:36.794Z,29.73
2018-03-25T12:24:08.105Z,31.53
2018-03-25T12:26:39.292Z,31.47
2018-03-25T12:29:10.525Z,30.00
2018-03-25T12:31:41.977Z,31.37
2018-03-25T12:34:13.438Z,32.00
2018-03-25T12:36:48.523Z,31.60
2018-03-25T12:39:21.785Z,31.53
2018-03-25T12:41:55.040Z,29.77
2018-03-25T12:44:27.259Z,32.90
2018-03-25T12:46:59.039Z,30.67
2018-03-25T12:49:30.655Z,32.53
2018-03-25T12:52:02.475Z,31.20
2018-03-25T12:54:34.262Z,31.33
2018-03-25T12:57:05.870Z,31.30
2018-03-25T12:59:38.280Z,30.07
2018-03-25T13:02:10.947Z,31.93
2018-03-25T13:04:42.579Z,31.53
2018-03-25T13:07:14.054Z,32.07
2018-03-25T13:09:45.592Z,32.00
2018-03-25T13:12:17.073Z,31.57
2018-03-25T13:14:48.499Z,32.50
2018-03-25T13:17:19.929Z,32.80
2018-03-25T13:19:52.728Z,32.07
2018-03-25T13:22:24.243Z,31.80
2018-03-25T13:24:56.279Z,33.90
2018-03-25T13:27:27.656Z,32.87
2018-03-25T13:29:58.939Z,32.73
2018-03-25T13:32:30.498Z,33.60
2018-03-25T13:35:01.847Z,34.17
2018-03-25T13:37:34.117Z,31.43
2018-03-25T13:40:05.637Z,33.47
2018-03-25T13:42:36.985Z,33.33
2018-03-25T13:45:08.210Z,33.83
2018-03-25T13:47:39.497Z,31.47
2018-03-25T13:50:10.722Z,31.63
2018-03-25T13:52:42.037Z,31.07
2018-03-25T13:55:13.308Z,31.90
2018-03-25T13:57:44.733Z,32.63
2018-03-25T14:00:16.019Z,32.33
2018-03-25T14:02:47.348Z,32.27
2018-03-25T14:05:18.627Z,31.80
2018-03-25T14:07:50.052Z,33.33
2018-03-25T14:10:21.272Z,32.00
2018-03-25T14:12:52.532Z,34.33
2018-03-25T14:15:23.960Z,33.80
2018-03-25T14:17:55.272Z,31.77
2018-03-25T14:20:27.635Z,30.83
2018-03-25T14:22:58.995Z,31.70
2018-03-25T14:25:31.113Z,31.47
2018-03-25T14:28:02.358Z,33.27
2018-03-25T14:30:33.655Z,33.00
2018-03-25T14:33:05.046Z,31.27
2018-03-25T14:35:36.299Z,32.73
2018-03-25T14:38:08.368Z,31.67
2018-03-25T14:40:39.647Z,32.23
2018-03-25T14:43:10.964Z,32.03
2018-03-25T14:45:42.207Z,30.97
2018-03-25T14:48:14.257Z,31.03
2018-03-25T14:50:45.592Z,31.13
2018-03-25T14:53:17.007Z,32.23
2018-03-25T14:55:48.243Z,33.83
2018-03-25T14:58:20.384Z,32.37
2018-03-25T15:00:51.631Z,31.10
2018-03-25T15:03:23.742Z,29.30
2018-03-25T15:05:55.042Z,29.67
2018-03-25T15:08:27.072Z,29.90
2018-03-25T15:10:58.326Z,30.57
2018-03-25T15:13:30.351Z,29.67
2018-03-25T15:16:01.697Z,28.07
2018-03-25T15:18:33.825Z,30.77
2018-03-25T15:21:05.980Z,29.30
2018-03-25T15:23:37.365Z,29.23
2018-03-25T15:26:09.304Z,29.63
2018-03-25T15:28:41.305Z,29.53
2018-03-25T15:31:12.569Z,28.47
2018-03-25T15:33:43.824Z,30.77
2018-03-25T15:36:15.091Z,30.10
2018-03-25T15:38:47.204Z,30.73
2018-03-25T15:41:18.482Z,30.23
2018-03-25T15:43:49.768Z,30.67
2018-03-25T15:46:21.876Z,29.63
2018-03-25T15:48:53.081Z,31.30
2018-03-25T15:51:25.103Z,37.53
2018-03-25T15:53:56.394Z,36.33
2018-03-25T15:56:27.598Z,29.77
2018-03-25T15:58:58.936Z,30.70
2018-03-25T16:01:30.213Z,30.60
2018-03-25T16:04:02.249Z,30.77
2018-03-25T16:06:33.536Z,34.43
2018-03-25T16:09:05.650Z,36.03
2018-03-25T17:33:38.819Z,28.03
2018-03-25T17:36:10.339Z,26.37
2018-03-25T17:38:41.569Z,29.93
2018-03-25T17:41:12.889Z,28.27
2018-03-25T17:43:44.128Z,28.63
2018-03-25T17:46:15.383Z,28.43
2018-03-25T17:48:46.766Z,28.40
2018-03-25T17:51:18.018Z,27.40
2018-03-25T17:53:49.313Z,26.87
2018-03-25T17:56:20.600Z,27.57
2018-03-25T17:58:51.891Z,30.00
2018-03-25T18:01:24.596Z,30.97
2018-03-25T18:03:56.087Z,30.67
2018-03-25T18:06:30.155Z,31.87
2018-03-25T18:09:01.884Z,33.33
2018-03-25T18:11:33.238Z,32.30
2018-03-25T18:14:04.584Z,32.97
2018-03-25T18:16:35.876Z,32.47
2018-03-25T18:19:07.243Z,34.03
2018-03-25T18:21:38.453Z,35.77
2018-03-25T18:24:10.134Z,34.57
2018-03-25T18:26:41.345Z,35.97
2018-03-25T18:29:12.579Z,35.50
2018-03-25T18:31:44.150Z,33.40
2018-03-25T18:34:16.183Z,35.67
2018-03-25T18:36:47.434Z,36.70
2018-03-25T18:39:18.745Z,33.33
2018-03-25T18:41:50.035Z,35.57
2018-03-25T18:44:21.334Z,36.57
2018-03-25T18:46:52.838Z,34.80
2018-03-25T18:49:24.450Z,34.70
2018-03-25T18:51:56.416Z,36.07
2018-03-25T18:54:27.728Z,37.03
2018-03-25T18:56:59.101Z,35.30
2018-03-25T18:59:30.454Z,37.63
2018-03-25T19:02:01.711Z,36.83
2018-03-25T19:04:33.566Z,37.60
2018-03-25T19:07:05.715Z,35.33
2018-03-25T19:09:37.832Z,35.40
2018-03-25T19:12:09.120Z,34.40
2018-03-25T19:14:41.790Z,35.57
2018-03-25T19:17:13.920Z,37.77
2018-03-25T19:19:45.167Z,35.37
2018-03-25T19:22:16.409Z,36.57
2018-03-25T19:24:49.188Z,36.10
2018-03-25T19:27:20.581Z,36.83
2018-03-25T19:29:51.931Z,36.60
2018-03-25T19:32:23.315Z,37.27
2018-03-25T19:34:55.522Z,36.77
2018-03-25T19:37:26.956Z,37.00
2018-03-25T19:39:58.279Z,36.33
2018-03-25T19:42:29.553Z,36.87
2018-03-25T19:45:00.837Z,36.83
2018-03-25T19:47:32.522Z,36.57
2018-03-25T19:50:03.885Z,36.60
2018-03-25T19:52:35.192Z,35.37
2018-03-25T19:55:07.195Z,34.93
2018-03-25T19:57:39.302Z,35.27
2018-03-25T20:00:11.516Z,35.47
2018-03-25T20:02:42.739Z,33.90
2018-03-25T20:05:13.968Z,36.13
2018-03-25T20:07:45.444Z,35.83
2018-03-25T20:10:17.463Z,36.57
2018-03-25T20:12:48.745Z,35.70
2018-03-25T20:15:20.027Z,31.97
2018-03-25T20:17:52.016Z,32.57
2018-03-25T20:20:23.293Z,30.73
2018-03-25T20:22:54.592Z,30.93
2018-03-25T20:25:25.837Z,29.00
2018-03-25T20:27:57.812Z,28.87
2018-03-25T20:30:29.107Z,29.40
2018-03-25T20:33:00.407Z,28.43
2018-03-25T20:35:31.708Z,28.03
2018-03-25T20:38:03.012Z,29.37
2018-03-25T20:40:34.254Z,29.70
2018-03-25T20:43:05.488Z,28.93
2018-03-25T20:45:36.769Z,27.80
2018-03-25T20:48:08.032Z,29.67
2018-03-25T20:50:39.310Z,28.53
2018-03-25T20:53:10.556Z,28.40
2018-03-25T20:55:41.828Z,29.10
2018-03-25T20:58:13.048Z,27.33
2018-03-25T21:00:44.297Z,26.97
2018-03-25T21:03:15.494Z,25.63
2018-03-25T21:05:46.727Z,26.20
2018-03-25T21:08:17.937Z,27.07
2018-03-25T21:10:49.234Z,26.53
2018-03-25T21:13:20.528Z,26.40
2018-03-25T21:15:52.090Z,27.07
2018-03-25T21:18:23.320Z,25.77
2018-03-25T21:20:54.589Z,24.90
2018-03-25T21:23:25.832Z,25.10
2018-03-25T21:25:57.087Z,24.70
2018-03-25T21:28:28.405Z,23.60
2018-03-25T21:30:59.713Z,23.97
2018-03-25T21:33:31.208Z,22.20
2018-03-25T21:36:02.430Z,24.20
2018-03-25T21:38:33.672Z,23.17
2018-03-25T21:41:05.035Z,24.07
2018-03-25T21:43:36.271Z,25.17
2018-03-25T21:46:07.656Z,21.90
2018-03-25T21:48:38.882Z,22.43
2018-03-25T21:51:10.143Z,24.20
2018-03-25T21:53:41.464Z,22.87
2018-03-25T21:56:12.689Z,23.70
2018-03-25T21:58:44.671Z,22.27
2018-03-25T22:01:16.241Z,22.80
2018-03-25T22:03:47.479Z,23.43
2018-03-25T22:06:18.737Z,24.90
2018-03-25T22:08:50.238Z,23.97
2018-03-25T22:11:21.532Z,24.93
2018-03-25T22:13:52.946Z,24.00
2018-03-25T22:16:24.176Z,23.07
2018-03-25T22:18:59.137Z,24.47
2018-03-25T22:21:30.531Z,23.70
2018-03-25T22:24:02.669Z,23.83
2018-03-25T22:26:33.962Z,23.37
2018-03-25T22:29:05.220Z,22.80
2018-03-25T22:31:36.532Z,22.67
2018-03-25T22:34:08.618Z,22.33
2018-03-25T22:36:40.601Z,22.13
2018-03-25T22:39:11.824Z,21.90
2018-03-25T22:41:43.859Z,21.70
2018-03-25T22:44:15.163Z,20.37
2018-03-25T22:46:46.401Z,23.07
2018-03-25T22:49:17.655Z,23.03
2018-03-25T22:51:49.659Z,22.20
2018-03-25T22:54:20.831Z,22.70
2018-03-25T22:56:52.519Z,23.23
2018-03-25T22:59:24.059Z,22.13
2018-03-25T23:01:55.323Z,22.23
2018-03-25T23:04:26.513Z,21.87
2018-03-25T23:06:57.809Z,21.77
2018-03-25T23:09:29.016Z,23.23
2018-03-25T23:12:01.048Z,21.67
2018-03-25T23:14:32.570Z,22.63
2018-03-25T23:17:03.817Z,20.93
2018-03-25T23:19:35.199Z,22.10
2018-03-25T23:22:06.562Z,22.93
2018-03-25T23:24:37.823Z,22.43
2018-03-25T23:27:09.043Z,23.07
2018-03-25T23:29:41.200Z,21.97
2018-03-25T23:32:12.524Z,24.43
2018-03-25T23:34:43.924Z,24.90
2018-03-25T23:37:15.164Z,25.90
2018-03-25T23:39:46.499Z,25.03
2018-03-25T23:42:17.739Z,25.17
2018-03-25T23:44:49.039Z,24.17
2018-03-25T23:47:20.273Z,24.07
2018-03-25T23:49:51.584Z,24.77
2018-03-25T23:52:22.866Z,24.87
2018-03-25T23:54:54.136Z,24.97
2018-03-25T23:57:25.312Z,24.70
2018-03-25T23:59:57.278Z,25.67
